Norton, KS

5:18 AM CDT on July 12, 2014 (GMT -0500)
Hill City Municipal (KHLC) Elev 2224 ft | 39.37 °N, 99.83 °W | Change Station

Current weather conditions updated 25 minutes ago

Clear
Clear
72 °F
Feels Like 72 °F
N
7
Wind Variable Wind from SSW

Today is forecast to be Cooler than yesterday. Chance of late night showers tonight.

Today
High -- | Low -- °F
--% Chance of Precip.
Yesterday
High -- | Low -- °F
Precip. -- in
6:21 AM 9:08 PM
Full, 100% visible
Pressure 29.92 in
Visibility 10.0 miles
Clouds Clear
Dew Point 59 °F
Humidity 64%
Rainfall 0.00 in
Snow Depth Not available.
UV 0 out of 12
Pollen 5.50 out of 12
Air Quality Not available.
Flu Activity No Activity
METAR KHLC 120953Z AUTO 21006KT 10SM CLR 22/15 A3000 RMK AO2 SLP130 T02220150

More Conditions Fewer Conditions

Pressure 29.92 in
Visibility 10.0 miles
Clouds Clear
Dew Point 59 °F
Humidity 64%
Rainfall 0.00 in
Snow Depth Not available.
UV 0 out of 12
Pollen 5.50 out of 12
Air Quality Not available.
Flu Activity No Activity
METAR KHLC 120953Z AUTO 21006KT 10SM CLR 22/15 A3000 RMK AO2 SLP130 T02220150

More Conditions Fewer Conditions

10-Day Weather Forecast

Almanac

Astronomy

Jul. 12, 2014 Rise Set
Actual Time 6:21 AM CDT 9:08 PM CDT
Civil Twilight 5:49 AM CDT 9:40 PM CDT
Nautical Twilight 5:09 AM CDT 10:20 PM CDT
Astronomical Twilight 4:23 AM CDT 11:05 PM CDT
Moon 9:11 PM CDT 6:42 AM CDT
Length of Visible Light 15h 50m
Length of Day
14h 46m
Tomorrow will be 1m 14s shorter.
Full, 100% of the Moon is Illuminated
Today
Full
Jul 12
Full
Jul 18
Last Quarter
Jul 26
New
Aug 3
First Quarter

Today's Extremes

State Highs State Lows

Community

WunderPhotos

Upload Photos

1,732,765 photos uploaded!

Nearby

Snow Depth

Station Depth Elevation
No new snow has been reported.

Earthquake Activity

City Distance Mag. Time & Date
No recent earthquake activity has been reported nearby.
Minimum magnitude displayed is 2.5.

Coastal Water Temperatures

Place Temperature
No Stations Reporting

Nearby Weather Stations

Station Location Temp. Heat Index Dew Point Humidity Wind Precip. Elev Updated Type
HADS PRAIRIE DOG CREEK AT COUNTY ROAD KS, Norcatur, KS 70 °F - - - North  at  - 0.00 in / hr 2350 ft 3:45 AM CDT MADIS
1 East, 2.5 South, Lenora, KS 69.0 °F - - - North  at  0.0 mph 0.00 in / hr 2467 ft 5:18 AM CDT Normal
Sarrada Farms 0.1 mi W, Logan, KS 74.1 °F 77 °F 61 °F 64% WSW  at  2.9 mph 0.00 in / hr 2021 ft 5:17 AM CDT Rapid Fire

Show More Stations Show Fewer Stations